Time;durP1;ratioP1;P1;durP2;ratioP2;P2;SDS_P1;SDS_P2;PMS_P1;PMS_P2;Temp;Humidity;BMP_temperature;BMP_pressure;BME280_temperature;BME280_humidity;BME280_pressure;Samples;Min_cycle;Max_cycle;Signal;HPM_P1;HPM_P2
2021/03/13 00:00:21;;;;;;;5.85;1.42;;;6.50;99.90;;;;;;5025533;28;20040;-71
2021/03/13 00:02:50;;;;;;;2.03;0.95;;;6.50;99.90;;;;;;5019813;28;20044;-71
2021/03/13 00:05:46;;;;;;;0.93;0.50;;;6.50;99.90;;;;;;5028105;28;20025;-71
2021/03/13 00:08:13;;;;;;;1.17;0.70;;;6.50;99.90;;;;;;5012742;28;20042;-71
2021/03/13 00:10:41;;;;;;;5.13;0.80;;;6.40;99.90;;;;;;5016859;28;20036;-71
2021/03/13 00:13:08;;;;;;;2.25;0.65;;;6.50;99.90;;;;;;5032736;28;20033;-72
2021/03/13 00:15:36;;;;;;;1.58;0.60;;;6.40;99.90;;;;;;5020058;28;20057;-72
2021/03/13 00:18:04;;;;;;;3.03;0.95;;;6.30;99.90;;;;;;5014561;28;20161;-71
2021/03/13 00:20:32;;;;;;;2.45;0.88;;;6.10;99.90;;;;;;5013810;28;20414;-71
2021/03/13 00:22:58;;;;;;;2.88;0.70;;;5.90;99.90;;;;;;5023110;28;20025;-71
2021/03/13 00:25:26;;;;;;;3.53;0.50;;;5.80;99.90;;;;;;5031195;28;20049;-71
2021/03/13 00:27:53;;;;;;;2.72;0.80;;;5.80;99.90;;;;;;5023999;28;20031;-72
2021/03/13 00:30:26;;;;;;;2.10;0.80;;;5.70;99.90;;;;;;5030775;28;20029;-71
2021/03/13 00:33:17;;;;;;;3.10;0.68;;;5.70;99.90;;;;;;5032308;28;20036;-71
2021/03/13 00:35:45;;;;;;;2.30;0.60;;;5.60;99.90;;;;;;5032191;28;20037;-71
2021/03/13 00:38:12;;;;;;;1.55;0.63;;;5.70;99.90;;;;;;5029450;28;20037;-71
2021/03/13 00:40:40;;;;;;;2.72;0.80;;;5.70;99.90;;;;;;5013958;28;20054;-72
2021/03/13 00:43:08;;;;;;;4.15;2.00;;;5.70;99.90;;;;;;5012969;28;20050;-71
2021/03/13 00:45:35;;;;;;;2.28;1.25;;;5.70;99.90;;;;;;5028040;28;20379;-72
2021/03/13 00:48:03;;;;;;;4.47;1.40;;;5.70;99.90;;;;;;5013650;28;20052;-71
2021/03/13 00:50:32;;;;;;;3.63;1.02;;;5.70;99.90;;;;;;5012025;28;20486;-72
2021/03/13 00:52:59;;;;;;;2.63;0.70;;;5.80;99.90;;;;;;5013475;28;20387;-72
2021/03/13 00:55:26;;;;;;;2.30;0.90;;;5.90;99.90;;;;;;5012833;28;20034;-72
2021/03/13 00:57:57;;;;;;;4.20;0.73;;;5.90;99.90;;;;;;5013143;28;20061;-72
2021/03/13 01:00:25;;;;;;;3.28;0.60;;;5.80;99.90;;;;;;5014167;28;20034;-72
2021/03/13 01:02:51;;;;;;;1.35;0.40;;;5.90;99.90;;;;;;5012525;28;20064;-72
2021/03/13 01:05:18;;;;;;;2.15;0.73;;;5.90;99.90;;;;;;5024996;28;20046;-72
2021/03/13 01:07:46;;;;;;;2.35;0.50;;;5.90;99.90;;;;;;5020056;28;20085;-72
2021/03/13 01:10:25;;;;;;;1.48;0.35;;;5.90;99.90;;;;;;4995562;28;20034;-72
2021/03/13 01:12:51;;;;;;;5.22;1.30;;;5.90;99.90;;;;;;5014328;28;20409;-72
2021/03/13 01:15:20;;;;;;;1.27;0.60;;;5.90;99.90;;;;;;5029769;28;20041;-72
2021/03/13 01:17:49;;;;;;;;;;;5.90;99.90;;;;;;5013253;28;20030;-72
2021/03/13 01:20:17;;;;;;;3.65;0.90;;;5.90;99.90;;;;;;5013529;28;19917;-72
2021/03/13 01:22:45;;;;;;;2.28;0.70;;;5.90;99.90;;;;;;5025052;28;20064;-72
2021/03/13 01:25:13;;;;;;;4.68;0.60;;;5.90;99.90;;;;;;5012603;28;20045;-72
2021/03/13 01:27:40;;;;;;;2.17;0.57;;;5.90;99.90;;;;;;5022389;28;20041;-72
2021/03/13 01:30:10;;;;;;;3.83;1.80;;;5.90;99.90;;;;;;5013095;28;20046;-71
2021/03/13 01:32:36;;;;;;;3.72;0.90;;;5.90;99.90;;;;;;5013556;28;20060;-72
2021/03/13 01:35:04;;;;;;;2.58;0.60;;;5.90;99.90;;;;;;5024484;28;20053;-71
2021/03/13 01:37:31;;;;;;;3.67;1.52;;;5.90;99.90;;;;;;5011505;28;20041;-72
2021/03/13 01:39:58;;;;;;;2.72;0.52;;;5.90;99.90;;;;;;5013398;28;20042;-72
2021/03/13 01:42:27;;;;;;;1.38;0.82;;;5.90;99.90;;;;;;5012660;28;20046;-72
2021/03/13 01:44:59;;;;;;;3.17;0.80;;;6.00;99.90;;;;;;5039316;28;20352;-72
2021/03/13 01:47:29;;;;;;;2.67;0.80;;;6.00;99.90;;;;;;5023030;28;20042;-72
2021/03/13 01:49:59;;;;;;;7.72;1.50;;;6.00;99.90;;;;;;5013297;28;20046;-71
2021/03/13 01:52:34;;;;;;;2.17;0.50;;;6.00;99.90;;;;;;5024566;28;20499;-72
2021/03/13 01:55:04;;;;;;;2.55;0.93;;;6.00;99.90;;;;;;5012112;28;20464;-72
2021/03/13 01:57:31;;;;;;;1.40;0.60;;;6.00;99.90;;;;;;5011497;28;20038;-72
2021/03/13 01:59:58;;;;;;;1.70;0.80;;;6.00;99.90;;;;;;5011067;28;20053;-72
2021/03/13 02:02:24;;;;;;;2.63;0.43;;;6.00;99.90;;;;;;5020979;28;20065;-72
2021/03/13 02:04:50;;;;;;;3.97;0.68;;;6.00;99.90;;;;;;5011450;28;20045;-73
2021/03/13 02:07:30;;;;;;;3.22;0.88;;;5.90;99.90;;;;;;5011275;28;20053;-72
2021/03/13 02:10:12;;;;;;;3.33;1.08;;;5.90;99.90;;;;;;5019423;28;20041;-71
2021/03/13 02:13:01;;;;;;;2.90;0.90;;;5.90;99.90;;;;;;5022557;28;20045;-72
2021/03/13 02:15:35;;;;;;;2.83;0.77;;;5.90;99.90;;;;;;5026942;28;20050;-71
2021/03/13 02:18:24;;;;;;;2.25;1.08;;;5.80;99.90;;;;;;5018455;28;20062;-71
2021/03/13 02:21:07;;;;;;;3.97;1.15;;;5.80;99.90;;;;;;5020903;28;20383;-72
2021/03/13 02:24:01;;;;;;;4.80;0.65;;;5.90;99.90;;;;;;5029124;28;20042;-72
2021/03/13 02:26:30;;;;;;;2.97;1.00;;;5.90;99.90;;;;;;5016850;28;20037;-72
2021/03/13 02:29:14;;;;;;;2.95;1.02;;;5.90;99.90;;;;;;5015472;28;20042;-72
2021/03/13 02:31:47;;;;;;;4.05;1.35;;;5.90;99.90;;;;;;5016484;28;20050;-72
2021/03/13 02:34:20;;;;;;;5.00;0.93;;;5.90;99.90;;;;;;5029562;28;20053;-72
2021/03/13 02:36:52;;;;;;;3.70;1.33;;;5.90;99.90;;;;;;5031077;28;20042;-72
2021/03/13 02:39:22;;;;;;;6.13;1.80;;;5.90;99.90;;;;;;5015255;28;20038;-72
2021/03/13 02:42:01;;;;;;;6.72;2.00;;;5.90;99.90;;;;;;5020488;28;20042;-72
2021/03/13 02:44:30;;;;;;;5.78;2.20;;;5.90;99.90;;;;;;5033218;28;20038;-72
2021/03/13 02:47:05;;;;;;;6.60;2.70;;;5.90;99.90;;;;;;5022960;28;20042;-72
2021/03/13 02:49:39;;;;;;;5.05;2.90;;;5.90;99.90;;;;;;5014746;28;20037;-72
2021/03/13 02:52:15;;;;;;;8.35;4.47;;;5.90;99.90;;;;;;5026251;28;20395;-72
2021/03/13 02:54:48;;;;;;;8.70;3.90;;;5.90;99.90;;;;;;5022542;28;20507;-72
2021/03/13 02:57:19;;;;;;;6.00;3.97;;;5.90;99.90;;;;;;5030175;28;20067;-72
2021/03/13 02:59:47;;;;;;;5.70;3.60;;;5.90;99.90;;;;;;5030375;28;20042;-72
2021/03/13 03:02:17;;;;;;;6.18;3.25;;;5.90;99.90;;;;;;5032499;28;20054;-72
2021/03/13 03:04:47;;;;;;;7.45;3.10;;;6.00;99.90;;;;;;5015062;28;20034;-71
2021/03/13 03:07:15;;;;;;;4.80;2.70;;;6.00;99.90;;;;;;5028352;28;20052;-72
2021/03/13 03:09:43;;;;;;;4.10;3.00;;;6.10;99.90;;;;;;5026496;28;20045;-72
2021/03/13 03:12:11;;;;;;;4.68;2.28;;;6.10;99.90;;;;;;5029093;28;20045;-73
2021/03/13 03:14:42;;;;;;;5.07;2.05;;;6.10;99.90;;;;;;5030948;28;20033;-72
2021/03/13 03:17:10;;;;;;;3.22;1.77;;;6.20;99.90;;;;;;5022180;28;20044;-72
2021/03/13 03:19:43;;;;;;;3.10;1.65;;;6.20;99.90;;;;;;5020673;28;20503;-72
2021/03/13 03:22:14;;;;;;;10.10;2.40;;;6.20;99.90;;;;;;5013754;28;20487;-72
2021/03/13 03:24:43;;;;;;;5.03;2.67;;;6.20;99.90;;;;;;5025719;28;20056;-72
2021/03/13 03:27:10;;;;;;;5.10;1.50;;;6.20;99.90;;;;;;5031686;28;20041;-72
2021/03/13 03:29:41;;;;;;;3.58;1.85;;;6.20;99.90;;;;;;5032562;28;20049;-71
2021/03/13 03:32:09;;;;;;;3.35;1.17;;;6.20;99.90;;;;;;5024422;28;20046;-72
2021/03/13 03:34:36;;;;;;;3.55;0.90;;;6.20;99.90;;;;;;5014345;28;20490;-72
2021/03/13 03:37:05;;;;;;;4.00;0.80;;;6.20;99.90;;;;;;5014235;28;20052;-72
2021/03/13 03:39:33;;;;;;;3.88;0.68;;;6.20;99.90;;;;;;5013027;28;20042;-71
2021/03/13 03:42:02;;;;;;;3.75;1.00;;;6.10;99.90;;;;;;5018552;28;20045;-72
2021/03/13 03:44:40;;;;;;;1.95;0.80;;;6.10;99.90;;;;;;5027767;28;20046;-72
2021/03/13 03:47:11;;;;;;;2.70;0.50;;;6.10;99.90;;;;;;5026483;28;20053;-73
2021/03/13 03:49:41;;;;;;;6.28;0.70;;;6.10;99.90;;;;;;5012847;28;20042;-72
2021/03/13 03:52:35;;;;;;;2.40;0.30;;;6.20;99.90;;;;;;5048427;28;20045;-72
2021/03/13 03:55:03;;;;;;;3.20;0.57;;;6.20;99.90;;;;;;5028807;28;20053;-72
2021/03/13 03:57:31;;;;;;;2.63;0.30;;;6.20;99.90;;;;;;5013610;28;20038;-72
2021/03/13 03:59:59;;;;;;;2.25;0.70;;;6.20;99.90;;;;;;5019112;28;20052;-72
2021/03/13 04:02:27;;;;;;;3.05;0.50;;;6.20;99.90;;;;;;5015880;28;20046;-72
2021/03/13 04:04:55;;;;;;;0.77;0.30;;;6.20;99.90;;;;;;5014024;28;20034;-72
2021/03/13 04:07:21;;;;;;;2.58;0.43;;;6.20;99.90;;;;;;5013744;28;20030;-72
2021/03/13 04:09:49;;;;;;;2.00;0.47;;;6.20;99.90;;;;;;5014292;28;20037;-72
2021/03/13 04:12:19;;;;;;;2.78;0.30;;;6.30;99.90;;;;;;5013985;28;20499;-72
2021/03/13 04:14:48;;;;;;;2.15;0.50;;;6.30;99.90;;;;;;5020067;28;20376;-72
2021/03/13 04:17:14;;;;;;;1.77;0.50;;;6.30;99.90;;;;;;5030124;28;20030;-72
2021/03/13 04:19:42;;;;;;;1.70;0.40;;;6.30;99.90;;;;;;5014122;28;20048;-72
2021/03/13 04:22:08;;;;;;;4.07;0.98;;;6.30;99.90;;;;;;5013874;28;20034;-72
2021/03/13 04:24:36;;;;;;;4.38;1.30;;;6.30;99.90;;;;;;5013380;28;20041;-72
2021/03/13 04:27:04;;;;;;;5.10;1.67;;;6.30;99.90;;;;;;5014339;28;20387;-71
2021/03/13 04:29:30;;;;;;;2.55;1.10;;;6.30;99.90;;;;;;5019057;28;20032;-72
2021/03/13 04:31:59;;;;;;;2.15;1.00;;;6.20;99.90;;;;;;5032042;28;20064;-72
2021/03/13 04:34:26;;;;;;;4.45;0.70;;;6.20;99.90;;;;;;5023054;28;20041;-72
2021/03/13 04:36:54;;;;;;;6.18;1.75;;;6.20;99.90;;;;;;5017755;28;20038;-72
2021/03/13 04:39:20;;;;;;;6.15;0.57;;;6.20;99.90;;;;;;5013585;28;20037;-72
2021/03/13 04:41:47;;;;;;;1.20;0.40;;;6.20;99.90;;;;;;5013704;28;20038;-72
2021/03/13 04:44:14;;;;;;;3.70;0.75;;;6.20;99.90;;;;;;5013633;28;20065;-72
2021/03/13 04:46:40;;;;;;;4.22;0.75;;;6.20;99.90;;;;;;5013020;28;20046;-72
2021/03/13 04:49:08;;;;;;;3.47;1.30;;;6.30;99.90;;;;;;5013654;28;20046;-72
2021/03/13 04:51:35;;;;;;;8.80;5.70;;;6.20;99.90;;;;;;5013075;28;20038;-72
2021/03/13 04:54:01;;;;;;;5.93;1.35;;;6.30;99.90;;;;;;5022838;28;20037;-72
2021/03/13 04:56:28;;;;;;;9.98;3.83;;;6.30;99.90;;;;;;5021039;28;20041;-72
2021/03/13 04:58:54;;;;;;;21.02;8.25;;;6.20;99.90;;;;;;5013587;28;20472;-72
2021/03/13 05:01:21;;;;;;;13.20;5.40;;;6.30;99.90;;;;;;5017999;28;20033;-71
2021/03/13 05:03:47;;;;;;;28.45;12.55;;;6.30;99.90;;;;;;5032134;28;20045;-72
2021/03/13 05:06:13;;;;;;;11.57;4.53;;;6.40;99.90;;;;;;5029345;28;20033;-73
2021/03/13 05:08:40;;;;;;;11.50;3.75;;;6.60;99.90;;;;;;5012896;28;20467;-71
2021/03/13 05:11:08;;;;;;;22.27;10.63;;;6.80;99.90;;;;;;5017030;28;20121;-71
2021/03/13 05:13:34;;;;;;;9.30;4.55;;;6.90;99.90;;;;;;5025353;28;20045;-72
2021/03/13 05:16:00;;;;;;;33.78;16.67;;;6.90;99.90;;;;;;5023127;28;20037;-71
2021/03/13 05:18:26;;;;;;;24.95;10.93;;;6.90;99.90;;;;;;5029877;28;20029;-72
2021/03/13 05:20:52;;;;;;;8.82;4.15;;;6.90;99.90;;;;;;5018106;28;20367;-72
2021/03/13 05:23:19;;;;;;;73.63;32.58;;;7.00;99.90;;;;;;5020233;28;20056;-72
2021/03/13 05:25:45;;;;;;;8.25;3.10;;;7.00;99.90;;;;;;5031328;28;20378;-72
2021/03/13 05:28:12;;;;;;;50.75;22.90;;;7.00;99.90;;;;;;5031797;28;20041;-72
2021/03/13 05:30:40;;;;;;;33.42;14.40;;;7.10;99.90;;;;;;5019135;28;20029;-72
2021/03/13 05:33:06;;;;;;;36.83;16.73;;;7.10;99.90;;;;;;5012899;28;20471;-72
2021/03/13 05:35:33;;;;;;;8.38;3.33;;;7.10;99.90;;;;;;5012218;28;20041;-72
2021/03/13 05:37:59;;;;;;;21.50;9.82;;;7.10;99.90;;;;;;5031037;28;20101;-73
2021/03/13 05:40:25;;;;;;;34.33;17.08;;;7.00;99.90;;;;;;5031384;28;20026;-72
2021/03/13 05:42:52;;;;;;;12.73;6.30;;;6.90;99.90;;;;;;5015009;28;20049;-72
2021/03/13 05:45:19;;;;;;;9.45;3.50;;;6.80;99.90;;;;;;5012493;28;20033;-72
2021/03/13 05:47:46;;;;;;;7.75;2.65;;;6.80;99.90;;;;;;5012738;28;20026;-72
2021/03/13 05:50:15;;;;;;;7.85;2.47;;;6.80;99.90;;;;;;5012905;28;20037;-72
2021/03/13 05:52:45;;;;;;;5.40;1.90;;;6.80;99.90;;;;;;5021566;28;20045;-72
2021/03/13 05:55:12;;;;;;;9.70;3.13;;;6.80;99.90;;;;;;5012422;28;20037;-72
2021/03/13 05:57:38;;;;;;;13.85;3.78;;;6.80;99.90;;;;;;5023613;28;20034;-72
2021/03/13 06:00:06;;;;;;;5.38;2.33;;;6.80;99.90;;;;;;5036399;28;20021;-72
2021/03/13 06:02:42;;;;;;;11.25;5.72;;;6.80;99.90;;;;;;5017408;28;20050;-72
2021/03/13 06:05:09;;;;;;;10.65;4.32;;;6.90;99.90;;;;;;5018672;28;20044;-71
2021/03/13 06:07:35;;;;;;;4.90;2.15;;;6.90;99.90;;;;;;5033730;28;20244;-72
2021/03/13 06:10:02;;;;;;;10.05;4.10;;;7.00;99.90;;;;;;5016150;28;20049;-72
2021/03/13 06:12:29;;;;;;;12.43;6.38;;;7.10;99.90;;;;;;5016050;28;20044;-72
2021/03/13 06:14:56;;;;;;;11.52;5.28;;;7.10;99.90;;;;;;5028289;28;20057;-73
2021/03/13 06:17:24;;;;;;;11.57;3.95;;;7.20;99.90;;;;;;5028870;28;20030;-72
2021/03/13 06:19:56;;;;;;;28.33;13.23;;;7.20;99.90;;;;;;5025079;28;20026;-72
2021/03/13 06:22:42;;;;;;;15.27;7.68;;;7.30;99.90;;;;;;5018206;28;20045;-72
2021/03/13 06:25:18;;;;;;;30.75;15.73;;;7.30;99.90;;;;;;5016790;28;20054;-72
2021/03/13 06:27:46;;;;;;;13.23;5.93;;;7.30;99.90;;;;;;5016235;28;20468;-70
2021/03/13 06:30:14;;;;;;;33.58;16.08;;;7.30;99.90;;;;;;5016262;28;20357;-71
2021/03/13 06:32:41;;;;;;;69.70;32.30;;;7.40;99.90;;;;;;5016102;28;20049;-71
2021/03/13 06:35:27;;;;;;;52.65;26.42;;;7.40;99.90;;;;;;5016362;28;20034;-71
2021/03/13 06:37:58;;;;;;;16.80;7.75;;;7.50;99.90;;;;;;5016627;28;20026;-71
2021/03/13 06:40:35;;;;;;;17.02;7.90;;;7.50;99.90;;;;;;5015692;28;20038;-71
2021/03/13 06:43:27;;;;;;;33.75;15.65;;;7.50;99.90;;;;;;5015376;28;20042;-71
2021/03/13 06:46:09;;;;;;;27.10;12.82;;;7.60;99.90;;;;;;5015450;28;20026;-72
2021/03/13 06:48:47;;;;;;;53.40;24.70;;;7.60;99.90;;;;;;5015560;28;20040;-71
2021/03/13 06:51:29;;;;;;;26.55;12.18;;;7.60;99.90;;;;;;5015531;28;20033;-71
2021/03/13 06:54:00;;;;;;;16.25;5.93;;;7.60;99.90;;;;;;5015650;28;20042;-71
2021/03/13 06:56:28;;;;;;;8.95;2.05;;;7.60;99.90;;;;;;5015001;28;20030;-71
2021/03/13 06:58:55;;;;;;;14.50;5.50;;;7.70;99.90;;;;;;5015329;28;20045;-71
2021/03/13 07:01:29;;;;;;;8.88;2.78;;;7.70;99.90;;;;;;5015111;28;20038;-72
2021/03/13 07:03:57;;;;;;;15.43;7.13;;;7.80;99.90;;;;;;5015455;28;20042;-71
2021/03/13 07:06:23;;;;;;;15.85;7.57;;;7.80;99.90;;;;;;5025180;28;20052;-71
2021/03/13 07:08:51;;;;;;;9.55;4.05;;;7.80;99.90;;;;;;5016259;28;20042;-71
2021/03/13 07:11:25;;;;;;;18.70;8.00;;;7.80;99.90;;;;;;5030379;28;20062;-71
2021/03/13 07:13:54;;;;;;;19.38;9.88;;;7.90;99.90;;;;;;5015536;28;20064;-72
2021/03/13 07:16:27;;;;;;;10.63;2.75;;;7.90;99.90;;;;;;5033271;28;20044;-72
2021/03/13 07:19:08;;;;;;;13.88;6.22;;;7.90;99.90;;;;;;5032298;28;20029;-72
2021/03/13 07:21:36;;;;;;;6.15;2.63;;;8.00;99.90;;;;;;5027179;28;20048;-72
2021/03/13 07:24:08;;;;;;;4.13;1.15;;;8.00;99.90;;;;;;5033321;28;20066;-72
2021/03/13 07:26:38;;;;;;;4.90;0.95;;;8.10;99.90;;;;;;5026174;28;20391;-72
2021/03/13 07:29:06;;;;;;;7.07;1.00;;;8.10;99.90;;;;;;5019203;28;20030;-72
2021/03/13 07:31:40;;;;;;;6.00;2.53;;;8.20;99.90;;;;;;5032579;28;20044;-72
2021/03/13 07:34:12;;;;;;;4.47;1.20;;;8.10;99.90;;;;;;5030337;28;20045;-72
2021/03/13 07:36:42;;;;;;;12.68;3.45;;;8.20;99.90;;;;;;5014313;28;20033;-72
2021/03/13 07:39:16;;;;;;;5.22;1.67;;;8.20;99.90;;;;;;5015012;28;20368;-72
2021/03/13 07:42:04;;;;;;;8.38;1.50;;;8.20;99.90;;;;;;5014526;28;20034;-72
2021/03/13 07:44:31;;;;;;;5.55;1.00;;;8.40;99.90;;;;;;5013639;28;20049;-73
2021/03/13 07:46:58;;;;;;;5.40;1.23;;;8.50;99.90;;;;;;5027793;28;20026;-72
2021/03/13 07:49:24;;;;;;;5.00;1.77;;;8.80;99.90;;;;;;5022306;28;20037;-72
2021/03/13 07:51:51;;;;;;;5.72;1.27;;;8.80;99.90;;;;;;5027372;28;20032;-71
2021/03/13 07:54:18;;;;;;;5.78;0.90;;;8.80;99.90;;;;;;5013917;28;20033;-72
2021/03/13 07:56:45;;;;;;;2.95;1.00;;;8.80;99.90;;;;;;5027467;28;20037;-71
2021/03/13 07:59:12;;;;;;;4.70;1.38;;;8.80;98.50;;;;;;5022920;28;20034;-72
2021/03/13 08:01:49;;;;;;;4.15;1.65;;;8.80;99.00;;;;;;5020735;28;20463;-71
2021/03/13 08:04:41;;;;;;;4.82;1.80;;;8.80;98.60;;;;;;5023048;28;20045;-71
2021/03/13 08:07:08;;;;;;;3.78;1.50;;;8.80;98.60;;;;;;5014803;28;20037;-72
2021/03/13 08:09:43;;;;;;;5.60;1.60;;;8.80;98.20;;;;;;5025058;28;20053;-72
2021/03/13 08:12:11;;;;;;;3.95;1.20;;;8.80;98.50;;;;;;5028962;28;20482;-72
2021/03/13 08:14:38;;;;;;;4.28;1.63;;;8.70;98.10;;;;;;5019799;28;20467;-72
2021/03/13 08:17:11;;;;;;;4.10;1.35;;;8.70;98.20;;;;;;5025829;28;20041;-72
2021/03/13 08:19:39;;;;;;;5.22;0.88;;;8.70;97.80;;;;;;5025917;28;20029;-72
2021/03/13 08:22:16;;;;;;;3.17;0.77;;;8.80;97.20;;;;;;5013503;28;20030;-72
2021/03/13 08:24:47;;;;;;;7.93;2.72;;;8.80;97.40;;;;;;5032484;28;20046;-72
2021/03/13 08:27:15;;;;;;;6.35;1.77;;;8.80;97.30;;;;;;5013517;28;20396;-72
2021/03/13 08:29:52;;;;;;;6.45;3.17;;;8.70;97.20;;;;;;5013050;28;20045;-72
2021/03/13 08:32:56;;;;;;;5.75;1.27;;;8.80;96.70;;;;;;5020571;28;20042;-73
2021/03/13 08:35:49;;;;;;;7.70;2.90;;;8.70;97.30;;;;;;5016421;28;20487;-73
2021/03/13 08:38:18;;;;;;;11.23;3.55;;;8.70;97.40;;;;;;5013912;28;20034;-72
2021/03/13 08:40:50;;;;;;;3.92;1.00;;;8.80;96.80;;;;;;5013799;28;20041;-73
2021/03/13 08:43:34;;;;;;;5.00;1.52;;;8.80;97.20;;;;;;5022406;28;20049;-73
2021/03/13 08:46:01;;;;;;;4.15;0.98;;;8.80;96.90;;;;;;5031756;28;20045;-73
2021/03/13 08:48:59;;;;;;;6.30;2.05;;;8.80;97.60;;;;;;5031340;28;20109;-73
2021/03/13 08:51:26;;;;;;;4.13;0.95;;;8.90;97.10;;;;;;5012067;28;20048;-74
2021/03/13 08:53:53;;;;;;;2.15;0.60;;;8.90;96.80;;;;;;5023490;28;20030;-73
2021/03/13 08:56:40;;;;;;;6.95;0.80;;;9.00;97.10;;;;;;5014441;28;20042;-73
2021/03/13 08:59:33;;;;;;;1.75;0.52;;;9.00;96.80;;;;;;5013562;28;20034;-73
2021/03/13 09:02:14;;;;;;;2.28;0.63;;;9.20;96.20;;;;;;5012273;28;20046;-72
2021/03/13 09:04:42;;;;;;;4.95;1.23;;;9.20;96.20;;;;;;5012951;28;20045;-73
2021/03/13 09:07:10;;;;;;;3.10;0.80;;;9.20;96.00;;;;;;5012898;28;20363;-72
2021/03/13 09:09:39;;;;;;;2.30;0.60;;;9.10;95.60;;;;;;5029337;28;20525;-72
2021/03/13 09:12:10;;;;;;;3.03;0.60;;;9.10;95.20;;;;;;5012978;28;20029;-73
2021/03/13 09:14:43;;;;;;;3.28;0.57;;;9.10;94.60;;;;;;5021110;28;20060;-73
2021/03/13 09:17:11;;;;;;;4.70;0.68;;;9.20;94.50;;;;;;5020769;28;20060;-78
2021/03/13 09:19:38;;;;;;;4.50;0.65;;;9.20;94.70;;;;;;4998442;28;20034;-73
2021/03/13 09:22:13;;;;;;;3.65;1.15;;;9.20;94.50;;;;;;5025470;28;20045;-73
2021/03/13 09:24:40;;;;;;;2.42;0.50;;;9.20;94.40;;;;;;5021569;28;20030;-73
2021/03/13 09:27:11;;;;;;;2.10;0.80;;;9.20;94.40;;;;;;5013380;28;20033;-73
2021/03/13 09:29:40;;;;;;;5.35;0.80;;;9.20;93.80;;;;;;5013018;28;20041;-74
2021/03/13 09:32:08;;;;;;;3.60;0.95;;;9.20;94.60;;;;;;5022758;28;20507;-74
2021/03/13 09:34:37;;;;;;;4.28;0.55;;;9.20;94.40;;;;;;5019068;28;20383;-73
2021/03/13 09:37:25;;;;;;;2.13;0.60;;;9.20;94.70;;;;;;5020684;28;20037;-73
2021/03/13 09:39:54;;;;;;;2.25;0.60;;;9.20;95.00;;;;;;5013744;28;20034;-73
2021/03/13 09:42:25;;;;;;;4.25;0.80;;;9.20;95.00;;;;;;5026548;28;20037;-73
2021/03/13 09:45:06;;;;;;;4.32;0.98;;;9.20;94.50;;;;;;5026709;28;20046;-73
2021/03/13 09:47:33;;;;;;;;;;;9.30;94.20;;;;;;5019370;28;20053;-73
2021/03/13 09:50:02;;;;;;;3.78;0.93;;;9.40;94.40;;;;;;5023286;28;19917;-73
2021/03/13 09:52:31;;;;;;;3.45;0.70;;;9.40;94.10;;;;;;5011982;28;20034;-73
2021/03/13 09:55:09;;;;;;;4.07;0.60;;;9.40;94.90;;;;;;5012547;28;20041;-73
2021/03/13 09:57:37;;;;;;;4.03;0.77;;;9.40;95.30;;;;;;5012378;28;20054;-74
2021/03/13 10:00:09;;;;;;;2.95;0.60;;;9.40;96.60;;;;;;5019578;28;20056;-74
2021/03/13 10:02:37;;;;;;;1.20;0.50;;;9.40;97.10;;;;;;5017436;28;20061;-73
2021/03/13 10:05:05;;;;;;;3.53;0.88;;;9.20;97.90;;;;;;5012425;28;20037;-76
2021/03/13 10:07:37;;;;;;;2.40;0.47;;;9.10;98.40;;;;;;5010909;28;20034;-76
2021/03/13 10:10:05;;;;;;;2.83;0.60;;;9.10;99.20;;;;;;5012666;28;20052;-76
2021/03/13 10:12:34;;;;;;;6.05;0.80;;;9.10;99.20;;;;;;5011950;28;20034;-74
2021/03/13 10:15:36;;;;;;;2.85;0.90;;;9.20;99.40;;;;;;5027496;28;20091;-77
2021/03/13 10:18:14;;;;;;;3.47;0.80;;;9.20;99.50;;;;;;4990121;28;20411;-74
2021/03/13 10:20:49;;;;;;;2.38;0.70;;;9.20;99.90;;;;;;5021719;28;20037;-77
2021/03/13 10:23:17;;;;;;;5.47;1.02;;;9.30;99.90;;;;;;5025819;28;20392;-76
2021/03/13 10:25:52;;;;;;;4.18;0.70;;;9.30;99.90;;;;;;5029633;28;20475;-76
2021/03/13 10:28:18;;;;;;;7.07;0.63;;;9.40;99.90;;;;;;5027184;28;20479;-76
2021/03/13 10:30:47;;;;;;;2.83;0.70;;;9.50;99.90;;;;;;5023101;28;20042;-76
2021/03/13 10:33:14;;;;;;;2.03;0.57;;;9.60;99.90;;;;;;5021430;28;20045;-76
2021/03/13 10:35:41;;;;;;;2.42;0.82;;;9.80;99.90;;;;;;5024172;28;20045;-76
2021/03/13 10:38:10;;;;;;;9.70;4.47;;;9.90;99.90;;;;;;5012389;28;20045;-76
2021/03/13 10:40:47;;;;;;;9.63;5.03;;;10.10;99.90;;;;;;5012900;28;20585;-76
2021/03/13 10:43:25;;;;;;;11.60;4.78;;;10.10;99.00;;;;;;5011439;28;20050;-77
2021/03/13 10:45:57;;;;;;;6.25;3.38;;;10.00;98.10;;;;;;5015818;28;20038;-76
2021/03/13 10:48:24;;;;;;;3.55;0.93;;;10.20;98.20;;;;;;5016481;28;20042;-77
2021/03/13 10:50:50;;;;;;;4.95;2.25;;;10.30;98.50;;;;;;5026955;28;20030;-74
2021/03/13 10:53:40;;;;;;;14.35;7.93;;;10.50;97.90;;;;;;5015867;28;20037;-75
2021/03/13 10:56:09;;;;;;;6.13;2.38;;;10.50;98.40;;;;;;5031377;28;20097;-80
2021/03/13 10:58:45;;;;;;;5.22;3.17;;;10.50;97.80;;;;;;5016573;28;20037;-78
2021/03/13 11:01:12;;;;;;;3.63;1.50;;;10.30;98.00;;;;;;5015506;28;20041;-72
2021/03/13 11:03:41;;;;;;;3.38;0.80;;;10.20;98.40;;;;;;5027540;28;20154;-74
2021/03/13 11:06:07;;;;;;;5.82;1.10;;;10.00;97.70;;;;;;5022031;28;20034;-74
2021/03/13 11:08:34;;;;;;;4.03;1.27;;;9.80;98.20;;;;;;5034104;28;20037;-73
2021/03/13 11:11:00;;;;;;;3.88;1.60;;;9.70;99.30;;;;;;5020164;28;20038;-73
2021/03/13 11:13:26;;;;;;;3.58;0.90;;;9.60;99.70;;;;;;5023160;28;20034;-73
2021/03/13 11:15:53;;;;;;;2.15;0.68;;;9.40;99.90;;;;;;5034105;28;20034;-72
2021/03/13 11:18:19;;;;;;;3.13;1.00;;;9.40;99.90;;;;;;5026237;28;20026;-74
2021/03/13 11:20:47;;;;;;;4.47;1.00;;;9.20;99.90;;;;;;5018408;28;20034;-73
2021/03/13 11:23:14;;;;;;;2.67;0.55;;;8.80;99.90;;;;;;5026604;28;20057;-72
2021/03/13 11:25:40;;;;;;;5.00;0.95;;;7.70;99.90;;;;;;5031077;28;20041;-72
2021/03/13 11:28:08;;;;;;;1.05;0.38;;;6.70;99.90;;;;;;5019900;28;20037;-71
2021/03/13 11:30:35;;;;;;;2.55;0.40;;;6.20;99.90;;;;;;5033336;28;20041;-73
2021/03/13 11:33:02;;;;;;;2.15;0.50;;;6.00;99.90;;;;;;5033113;28;20038;-69
2021/03/13 11:35:29;;;;;;;3.75;1.00;;;5.90;99.90;;;;;;5028108;28;20345;-73
2021/03/13 11:37:55;;;;;;;3.42;0.80;;;5.90;99.90;;;;;;5023937;28;20044;-71
2021/03/13 11:40:24;;;;;;;4.88;1.52;;;6.00;99.90;;;;;;5022735;28;20025;-72
2021/03/13 11:42:55;;;;;;;6.95;1.35;;;5.90;99.90;;;;;;5026440;28;20030;-71
2021/03/13 11:45:22;;;;;;;6.32;1.88;;;5.80;99.90;;;;;;5017691;28;20053;-72
2021/03/13 11:47:49;;;;;;;3.90;1.48;;;5.80;99.90;;;;;;5023562;28;20060;-73
2021/03/13 11:50:18;;;;;;;5.00;1.33;;;5.80;99.90;;;;;;5015631;28;20065;-72
2021/03/13 11:52:45;;;;;;;3.78;0.90;;;5.80;99.90;;;;;;5029587;28;20034;-72
2021/03/13 11:55:12;;;;;;;5.07;1.70;;;5.90;99.90;;;;;;5024178;28;20033;-74
2021/03/13 11:57:38;;;;;;;5.93;4.00;;;5.90;99.90;;;;;;5029479;28;20391;-70
2021/03/13 12:00:08;;;;;;;3.08;0.98;;;5.90;99.90;;;;;;5023874;28;20041;-72
2021/03/13 12:02:35;;;;;;;5.05;2.25;;;5.60;99.90;;;;;;5025988;28;20045;-71
2021/03/13 12:05:01;;;;;;;12.85;5.82;;;5.60;99.90;;;;;;5023982;28;20038;-72
2021/03/13 12:07:27;;;;;;;3.63;1.83;;;5.70;99.90;;;;;;5014730;28;20396;-71
2021/03/13 12:09:54;;;;;;;3.72;2.47;;;5.70;99.90;;;;;;5014077;28;20648;-72
2021/03/13 12:12:21;;;;;;;2.55;1.63;;;5.60;99.90;;;;;;5014136;28;20046;-73
2021/03/13 12:14:48;;;;;;;6.93;3.90;;;5.70;99.90;;;;;;5013303;28;20030;-74
2021/03/13 12:17:14;;;;;;;5.68;3.33;;;5.80;99.90;;;;;;5021314;28;20379;-72
2021/03/13 12:19:41;;;;;;;3.47;1.73;;;6.00;99.90;;;;;;5015718;28;20507;-72
2021/03/13 12:22:09;;;;;;;16.92;10.40;;;6.10;99.90;;;;;;5032835;28;20036;-72
2021/03/13 12:24:36;;;;;;;4.78;2.60;;;6.20;99.90;;;;;;5013485;28;20030;-72
2021/03/13 12:27:04;;;;;;;9.43;5.30;;;6.30;99.90;;;;;;5030997;28;20060;-75
2021/03/13 12:29:31;;;;;;;8.90;5.20;;;6.50;99.90;;;;;;5018251;28;20044;-75
2021/03/13 12:31:57;;;;;;;3.90;2.42;;;6.60;99.90;;;;;;5025199;28;20052;-77
2021/03/13 12:34:23;;;;;;;19.95;12.93;;;6.60;99.90;;;;;;5013339;28;20041;-79
2021/03/13 12:36:49;;;;;;;5.13;2.65;;;6.60;99.90;;;;;;5022829;28;20040;-76
2021/03/13 12:39:17;;;;;;;10.00;6.22;;;6.70;99.90;;;;;;5028550;28;20030;-76
2021/03/13 12:41:44;;;;;;;6.63;3.20;;;6.70;99.90;;;;;;5014151;28;20046;-76
2021/03/13 12:44:11;;;;;;;10.50;5.82;;;6.70;99.90;;;;;;5032450;28;20057;-75
2021/03/13 12:46:38;;;;;;;4.20;2.53;;;6.70;99.90;;;;;;5027257;28;20030;-72
2021/03/13 12:49:04;;;;;;;3.65;1.55;;;6.80;99.90;;;;;;5020603;28;20471;-76
2021/03/13 12:51:31;;;;;;;4.32;1.10;;;6.80;99.90;;;;;;5023663;28;20469;-73
2021/03/13 12:53:59;;;;;;;2.90;1.63;;;6.90;99.90;;;;;;5016549;28;20030;-73
2021/03/13 12:56:26;;;;;;;7.50;2.80;;;6.90;99.90;;;;;;5017701;28;20030;-73
2021/03/13 12:58:52;;;;;;;11.32;5.22;;;6.90;99.90;;;;;;5016882;28;20040;-73
2021/03/13 13:01:18;;;;;;;9.25;4.32;;;7.00;99.90;;;;;;5016378;28;20471;-73
2021/03/13 13:03:55;;;;;;;15.48;5.88;;;7.10;99.90;;;;;;5024987;28;20264;-73
2021/03/13 13:06:22;;;;;;;9.32;4.65;;;7.10;99.90;;;;;;5012631;28;20475;-75
2021/03/13 13:08:48;;;;;;;7.13;2.72;;;7.20;99.90;;;;;;5012787;28;20022;-73
2021/03/13 13:11:14;;;;;;;8.80;2.30;;;7.30;99.90;;;;;;5013787;28;20375;-72